sensor_id;sensor_type;location;lat;lon;timestamp;temperature;humidity
19389;DHT22;9830;41.876;23.474;2022-10-19T00:01:11;0.20;99.90
19389;DHT22;9830;41.876;23.474;2022-10-19T00:03:37;0.20;99.90
19389;DHT22;9830;41.876;23.474;2022-10-19T00:08:41;0.10;99.90
19389;DHT22;9830;41.876;23.474;2022-10-19T00:11:07;0.10;99.90
19389;DHT22;9830;41.876;23.474;2022-10-19T00:13:33;0.10;99.90
19389;DHT22;9830;41.876;23.474;2022-10-19T00:16:00;0.10;99.90
19389;DHT22;9830;41.876;23.474;2022-10-19T00:18:26;-0.10;99.90
19389;DHT22;9830;41.876;23.474;2022-10-19T00:20:51;-0.30;99.90
19389;DHT22;9830;41.876;23.474;2022-10-19T00:23:17;-0.30;99.90
19389;DHT22;9830;41.876;23.474;2022-10-19T00:25:54;-0.30;99.90
19389;DHT22;9830;41.876;23.474;2022-10-19T00:28:20;-0.20;99.90
19389;DHT22;9830;41.876;23.474;2022-10-19T00:30:46;-0.20;99.90
19389;DHT22;9830;41.876;23.474;2022-10-19T00:33:11;-0.10;99.90
19389;DHT22;9830;41.876;23.474;2022-10-19T00:35:40;-0.20;99.90
19389;DHT22;9830;41.876;23.474;2022-10-19T00:38:06;-0.20;99.90
19389;DHT22;9830;41.876;23.474;2022-10-19T00:40:39;-0.20;99.90
19389;DHT22;9830;41.876;23.474;2022-10-19T00:43:16;-0.20;99.90
19389;DHT22;9830;41.876;23.474;2022-10-19T00:45:42;-0.20;99.90
19389;DHT22;9830;41.876;23.474;2022-10-19T00:48:10;-0.40;99.90
19389;DHT22;9830;41.876;23.474;2022-10-19T00:50:38;-0.50;99.90
19389;DHT22;9830;41.876;23.474;2022-10-19T00:53:04;-0.60;99.90
19389;DHT22;9830;41.876;23.474;2022-10-19T00:55:30;-0.70;99.90
19389;DHT22;9830;41.876;23.474;2022-10-19T00:57:57;-0.70;99.90
19389;DHT22;9830;41.876;23.474;2022-10-19T01:00:22;-0.70;99.90
19389;DHT22;9830;41.876;23.474;2022-10-19T01:02:48;-0.80;99.90
19389;DHT22;9830;41.876;23.474;2022-10-19T01:05:15;-0.70;99.90
19389;DHT22;9830;41.876;23.474;2022-10-19T01:07:42;-0.50;99.90
19389;DHT22;9830;41.876;23.474;2022-10-19T01:10:08;-0.50;99.90
19389;DHT22;9830;41.876;23.474;2022-10-19T01:12:50;-0.60;99.90
19389;DHT22;9830;41.876;23.474;2022-10-19T01:15:27;-0.70;99.90
19389;DHT22;9830;41.876;23.474;2022-10-19T01:31:53;-0.70;99.90
19389;DHT22;9830;41.876;23.474;2022-10-19T01:34:33;-0.60;99.90
19389;DHT22;9830;41.876;23.474;2022-10-19T01:37:32;-0.70;99.90
19389;DHT22;9830;41.876;23.474;2022-10-19T01:45:31;-0.80;99.90
19389;DHT22;9830;41.876;23.474;2022-10-19T01:48:13;-0.80;99.90
19389;DHT22;9830;41.876;23.474;2022-10-19T01:50:59;-0.80;99.90
19389;DHT22;9830;41.876;23.474;2022-10-19T01:53:28;-0.80;99.90
19389;DHT22;9830;41.876;23.474;2022-10-19T01:55:55;-1.00;99.90
19389;DHT22;9830;41.876;23.474;2022-10-19T01:58:26;-1.00;99.90
19389;DHT22;9830;41.876;23.474;2022-10-19T02:00:53;-1.10;99.90
19389;DHT22;9830;41.876;23.474;2022-10-19T02:03:21;-1.10;99.90
19389;DHT22;9830;41.876;23.474;2022-10-19T02:05:49;-1.10;99.90
19389;DHT22;9830;41.876;23.474;2022-10-19T02:08:33;-1.30;99.90
19389;DHT22;9830;41.876;23.474;2022-10-19T02:11:02;-1.20;99.90
19389;DHT22;9830;41.876;23.474;2022-10-19T02:13:29;-1.20;99.90
19389;DHT22;9830;41.876;23.474;2022-10-19T02:15:57;-1.10;99.90
19389;DHT22;9830;41.876;23.474;2022-10-19T02:18:31;-1.10;99.90
19389;DHT22;9830;41.876;23.474;2022-10-19T02:21:00;-1.10;99.90
19389;DHT22;9830;41.876;23.474;2022-10-19T02:23:27;-1.20;99.90
19389;DHT22;9830;41.876;23.474;2022-10-19T02:25:53;-1.10;99.90
19389;DHT22;9830;41.876;23.474;2022-10-19T02:28:20;-1.10;99.90
19389;DHT22;9830;41.876;23.474;2022-10-19T02:30:47;-1.30;99.90
19389;DHT22;9830;41.876;23.474;2022-10-19T02:33:13;-1.50;99.90
19389;DHT22;9830;41.876;23.474;2022-10-19T02:35:39;-1.50;99.90
19389;DHT22;9830;41.876;23.474;2022-10-19T02:38:06;-1.50;99.90
19389;DHT22;9830;41.876;23.474;2022-10-19T02:40:38;-1.50;99.90
19389;DHT22;9830;41.876;23.474;2022-10-19T02:43:09;-1.50;99.90
19389;DHT22;9830;41.876;23.474;2022-10-19T02:45:42;-1.50;99.90
19389;DHT22;9830;41.876;23.474;2022-10-19T02:48:17;-1.40;99.90
19389;DHT22;9830;41.876;23.474;2022-10-19T02:50:45;-1.40;99.90
19389;DHT22;9830;41.876;23.474;2022-10-19T02:53:12;-1.40;99.90
19389;DHT22;9830;41.876;23.474;2022-10-19T02:55:39;-1.40;99.90
19389;DHT22;9830;41.876;23.474;2022-10-19T02:58:04;-1.50;99.90
19389;DHT22;9830;41.876;23.474;2022-10-19T03:00:30;-1.40;99.90
19389;DHT22;9830;41.876;23.474;2022-10-19T03:02:56;-1.40;99.90
19389;DHT22;9830;41.876;23.474;2022-10-19T03:05:21;-1.50;99.90
19389;DHT22;9830;41.876;23.474;2022-10-19T03:07:47;-1.60;99.90
19389;DHT22;9830;41.876;23.474;2022-10-19T03:10:13;-1.60;99.90
19389;DHT22;9830;41.876;23.474;2022-10-19T03:12:38;-1.50;99.90
19389;DHT22;9830;41.876;23.474;2022-10-19T03:15:05;-1.50;99.90
19389;DHT22;9830;41.876;23.474;2022-10-19T03:17:30;-1.60;99.90
19389;DHT22;9830;41.876;23.474;2022-10-19T03:19:56;-1.60;99.90
19389;DHT22;9830;41.876;23.474;2022-10-19T03:22:22;-1.70;99.90
19389;DHT22;9830;41.876;23.474;2022-10-19T03:24:47;-1.70;99.90
19389;DHT22;9830;41.876;23.474;2022-10-19T03:27:13;-1.70;99.90
19389;DHT22;9830;41.876;23.474;2022-10-19T03:29:39;-1.80;99.90
19389;DHT22;9830;41.876;23.474;2022-10-19T03:32:04;-1.80;99.90
19389;DHT22;9830;41.876;23.474;2022-10-19T03:34:30;-1.80;99.90
19389;DHT22;9830;41.876;23.474;2022-10-19T03:36:56;-1.80;99.90
19389;DHT22;9830;41.876;23.474;2022-10-19T03:39:23;-1.90;99.90
19389;DHT22;9830;41.876;23.474;2022-10-19T03:41:49;-1.90;99.90
19389;DHT22;9830;41.876;23.474;2022-10-19T03:44:15;-1.80;99.90
19389;DHT22;9830;41.876;23.474;2022-10-19T03:46:41;-1.80;99.90
19389;DHT22;9830;41.876;23.474;2022-10-19T03:49:07;-1.80;99.90
19389;DHT22;9830;41.876;23.474;2022-10-19T03:51:34;-1.90;99.90
19389;DHT22;9830;41.876;23.474;2022-10-19T03:54:03;-2.00;99.90
19389;DHT22;9830;41.876;23.474;2022-10-19T03:56:29;-2.10;99.90
19389;DHT22;9830;41.876;23.474;2022-10-19T03:58:57;-2.10;99.90
19389;DHT22;9830;41.876;23.474;2022-10-19T04:01:34;-2.10;99.90
19389;DHT22;9830;41.876;23.474;2022-10-19T04:04:02;-2.20;99.90
19389;DHT22;9830;41.876;23.474;2022-10-19T04:06:32;-2.30;99.90
19389;DHT22;9830;41.876;23.474;2022-10-19T04:08:58;-2.20;99.90
19389;DHT22;9830;41.876;23.474;2022-10-19T04:11:26;-2.20;99.90
19389;DHT22;9830;41.876;23.474;2022-10-19T04:13:53;-2.30;99.90
19389;DHT22;9830;41.876;23.474;2022-10-19T04:16:20;-2.30;99.90
19389;DHT22;9830;41.876;23.474;2022-10-19T04:18:46;-2.30;99.90
19389;DHT22;9830;41.876;23.474;2022-10-19T04:21:30;-2.30;99.90
19389;DHT22;9830;41.876;23.474;2022-10-19T04:24:05;-2.30;99.90
19389;DHT22;9830;41.876;23.474;2022-10-19T04:26:31;-2.30;99.90
19389;DHT22;9830;41.876;23.474;2022-10-19T04:28:57;-2.40;99.90
19389;DHT22;9830;41.876;23.474;2022-10-19T04:31:24;-2.40;99.90
19389;DHT22;9830;41.876;23.474;2022-10-19T04:33:49;-2.50;99.90
19389;DHT22;9830;41.876;23.474;2022-10-19T04:36:15;-2.40;99.90
19389;DHT22;9830;41.876;23.474;2022-10-19T04:38:41;-2.30;99.90
19389;DHT22;9830;41.876;23.474;2022-10-19T04:41:10;-2.30;99.90
19389;DHT22;9830;41.876;23.474;2022-10-19T04:43:37;-2.30;99.90
19389;DHT22;9830;41.876;23.474;2022-10-19T04:46:04;-2.30;99.90
19389;DHT22;9830;41.876;23.474;2022-10-19T04:48:30;-2.30;99.90
19389;DHT22;9830;41.876;23.474;2022-10-19T04:50:56;-2.40;99.90
19389;DHT22;9830;41.876;23.474;2022-10-19T04:53:22;-2.30;99.90
19389;DHT22;9830;41.876;23.474;2022-10-19T04:55:49;-2.40;99.90
19389;DHT22;9830;41.876;23.474;2022-10-19T04:58:15;-2.30;99.90
19389;DHT22;9830;41.876;23.474;2022-10-19T05:00:40;-2.20;99.90
19389;DHT22;9830;41.876;23.474;2022-10-19T05:03:06;-1.90;99.90
19389;DHT22;9830;41.876;23.474;2022-10-19T05:05:32;-1.70;99.90
19389;DHT22;9830;41.876;23.474;2022-10-19T05:07:59;-1.40;99.90
19389;DHT22;9830;41.876;23.474;2022-10-19T05:10:24;-1.00;99.90
19389;DHT22;9830;41.876;23.474;2022-10-19T05:12:50;-0.10;99.90
19389;DHT22;9830;41.876;23.474;2022-10-19T05:15:16;0.50;99.90
19389;DHT22;9830;41.876;23.474;2022-10-19T05:17:42;1.50;98.60
19389;DHT22;9830;41.876;23.474;2022-10-19T05:20:08;2.50;94.70
19389;DHT22;9830;41.876;23.474;2022-10-19T05:22:38;3.30;92.20
19389;DHT22;9830;41.876;23.474;2022-10-19T05:25:05;3.50;90.30
19389;DHT22;9830;41.876;23.474;2022-10-19T05:27:31;4.10;86.00
19389;DHT22;9830;41.876;23.474;2022-10-19T05:29:57;4.20;86.30
19389;DHT22;9830;41.876;23.474;2022-10-19T05:32:22;5.20;83.20
19389;DHT22;9830;41.876;23.474;2022-10-19T05:34:48;5.30;79.40
19389;DHT22;9830;41.876;23.474;2022-10-19T05:37:15;5.30;78.30
19389;DHT22;9830;41.876;23.474;2022-10-19T05:39:41;6.10;73.80
19389;DHT22;9830;41.876;23.474;2022-10-19T05:42:07;6.30;73.00
19389;DHT22;9830;41.876;23.474;2022-10-19T05:44:33;6.60;72.30
19389;DHT22;9830;41.876;23.474;2022-10-19T05:46:59;6.80;69.30
19389;DHT22;9830;41.876;23.474;2022-10-19T05:49:25;7.50;70.80
19389;DHT22;9830;41.876;23.474;2022-10-19T05:51:50;9.40;60.70
19389;DHT22;9830;41.876;23.474;2022-10-19T05:54:16;11.30;53.70
19389;DHT22;9830;41.876;23.474;2022-10-19T05:56:42;11.80;50.80
19389;DHT22;9830;41.876;23.474;2022-10-19T05:59:12;11.80;50.00
19389;DHT22;9830;41.876;23.474;2022-10-19T06:01:39;11.70;50.20
19389;DHT22;9830;41.876;23.474;2022-10-19T06:04:04;11.00;50.60
19389;DHT22;9830;41.876;23.474;2022-10-19T06:06:32;10.70;52.90
19389;DHT22;9830;41.876;23.474;2022-10-19T06:08:58;9.50;54.60
19389;DHT22;9830;41.876;23.474;2022-10-19T06:11:26;9.40;57.20
19389;DHT22;9830;41.876;23.474;2022-10-19T06:13:57;10.40;55.50
19389;DHT22;9830;41.876;23.474;2022-10-19T06:16:25;11.60;51.50
19389;DHT22;9830;41.876;23.474;2022-10-19T06:18:52;12.00;50.20
19389;DHT22;9830;41.876;23.474;2022-10-19T06:21:20;12.40;49.20
19389;DHT22;9830;41.876;23.474;2022-10-19T06:23:51;12.60;49.60
19389;DHT22;9830;41.876;23.474;2022-10-19T06:26:17;12.90;48.80
19389;DHT22;9830;41.876;23.474;2022-10-19T06:28:43;13.30;47.80
19389;DHT22;9830;41.876;23.474;2022-10-19T06:31:10;11.30;51.60
19389;DHT22;9830;41.876;23.474;2022-10-19T06:33:38;12.00;50.30
19389;DHT22;9830;41.876;23.474;2022-10-19T06:36:06;12.40;50.00
19389;DHT22;9830;41.876;23.474;2022-10-19T06:38:32;12.10;49.40
19389;DHT22;9830;41.876;23.474;2022-10-19T06:40:58;13.40;49.20
19389;DHT22;9830;41.876;23.474;2022-10-19T06:43:24;15.00;45.10
19389;DHT22;9830;41.876;23.474;2022-10-19T06:45:50;14.60;44.30
19389;DHT22;9830;41.876;23.474;2022-10-19T06:48:16;14.10;45.70
19389;DHT22;9830;41.876;23.474;2022-10-19T06:50:41;15.00;44.60
19389;DHT22;9830;41.876;23.474;2022-10-19T06:53:07;14.10;45.30
19389;DHT22;9830;41.876;23.474;2022-10-19T06:55:33;14.00;46.80
19389;DHT22;9830;41.876;23.474;2022-10-19T06:57:59;16.00;42.60
19389;DHT22;9830;41.876;23.474;2022-10-19T07:00:27;16.30;41.80
19389;DHT22;9830;41.876;23.474;2022-10-19T07:02:52;17.60;39.90
19389;DHT22;9830;41.876;23.474;2022-10-19T07:05:19;16.90;40.60
19389;DHT22;9830;41.876;23.474;2022-10-19T07:07:44;17.10;39.60
19389;DHT22;9830;41.876;23.474;2022-10-19T07:10:11;15.80;42.10
19389;DHT22;9830;41.876;23.474;2022-10-19T07:12:37;15.30;43.60
19389;DHT22;9830;41.876;23.474;2022-10-19T07:15:03;15.90;42.80
19389;DHT22;9830;41.876;23.474;2022-10-19T07:17:29;17.00;40.50
19389;DHT22;9830;41.876;23.474;2022-10-19T07:19:54;16.10;40.90
19389;DHT22;9830;41.876;23.474;2022-10-19T07:22:20;18.40;37.20
19389;DHT22;9830;41.876;23.474;2022-10-19T07:24:46;18.00;36.50
19389;DHT22;9830;41.876;23.474;2022-10-19T07:27:12;20.00;34.30
19389;DHT22;9830;41.876;23.474;2022-10-19T07:29:38;19.80;34.20
19389;DHT22;9830;41.876;23.474;2022-10-19T07:32:03;19.10;34.70
19389;DHT22;9830;41.876;23.474;2022-10-19T07:34:29;18.50;38.10
19389;DHT22;9830;41.876;23.474;2022-10-19T07:36:55;19.40;36.20
19389;DHT22;9830;41.876;23.474;2022-10-19T07:39:21;19.70;34.80
19389;DHT22;9830;41.876;23.474;2022-10-19T07:41:47;19.20;34.60
19389;DHT22;9830;41.876;23.474;2022-10-19T07:44:13;19.10;37.00
19389;DHT22;9830;41.876;23.474;2022-10-19T07:46:39;18.80;36.80
19389;DHT22;9830;41.876;23.474;2022-10-19T07:49:08;18.90;36.10
19389;DHT22;9830;41.876;23.474;2022-10-19T07:51:36;18.80;36.30
19389;DHT22;9830;41.876;23.474;2022-10-19T07:54:01;18.80;36.90
19389;DHT22;9830;41.876;23.474;2022-10-19T07:56:27;19.70;35.70
19389;DHT22;9830;41.876;23.474;2022-10-19T07:58:54;18.10;38.10
19389;DHT22;9830;41.876;23.474;2022-10-19T08:01:22;19.30;37.50
19389;DHT22;9830;41.876;23.474;2022-10-19T08:03:51;20.30;34.30
19389;DHT22;9830;41.876;23.474;2022-10-19T08:06:17;20.40;32.30
19389;DHT22;9830;41.876;23.474;2022-10-19T08:08:45;21.10;32.70
19389;DHT22;9830;41.876;23.474;2022-10-19T08:11:18;22.20;30.60
19389;DHT22;9830;41.876;23.474;2022-10-19T08:13:44;21.30;30.00
19389;DHT22;9830;41.876;23.474;2022-10-19T08:16:37;22.00;30.10
19389;DHT22;9830;41.876;23.474;2022-10-19T08:19:14;22.40;28.70
19389;DHT22;9830;41.876;23.474;2022-10-19T08:21:42;22.60;28.90
19389;DHT22;9830;41.876;23.474;2022-10-19T08:24:09;22.80;28.80
19389;DHT22;9830;41.876;23.474;2022-10-19T08:26:37;21.40;30.70
19389;DHT22;9830;41.876;23.474;2022-10-19T08:29:14;21.80;31.00
19389;DHT22;9830;41.876;23.474;2022-10-19T08:31:41;22.70;30.10
19389;DHT22;9830;41.876;23.474;2022-10-19T08:34:08;21.30;31.30
19389;DHT22;9830;41.876;23.474;2022-10-19T08:36:34;21.90;30.50
19389;DHT22;9830;41.876;23.474;2022-10-19T08:39:03;22.80;29.80
19389;DHT22;9830;41.876;23.474;2022-10-19T08:49:46;22.50;29.70
19389;DHT22;9830;41.876;23.474;2022-10-19T08:52:18;22.70;28.90
19389;DHT22;9830;41.876;23.474;2022-10-19T08:54:54;23.60;27.80
19389;DHT22;9830;41.876;23.474;2022-10-19T08:57:38;23.90;27.60
19389;DHT22;9830;41.876;23.474;2022-10-19T09:00:12;24.10;27.10
19389;DHT22;9830;41.876;23.474;2022-10-19T09:05:42;23.00;29.00
19389;DHT22;9830;41.876;23.474;2022-10-19T09:08:10;22.90;28.60
19389;DHT22;9830;41.876;23.474;2022-10-19T09:10:40;24.00;28.50
19389;DHT22;9830;41.876;23.474;2022-10-19T09:15:45;24.60;27.70
19389;DHT22;9830;41.876;23.474;2022-10-19T09:26:22;25.70;26.50
19389;DHT22;9830;41.876;23.474;2022-10-19T09:29:10;26.00;26.30
19389;DHT22;9830;41.876;23.474;2022-10-19T09:31:38;26.70;25.80
19389;DHT22;9830;41.876;23.474;2022-10-19T09:34:25;26.10;26.00
19389;DHT22;9830;41.876;23.474;2022-10-19T09:36:57;25.80;26.60
19389;DHT22;9830;41.876;23.474;2022-10-19T09:39:24;24.40;28.20
19389;DHT22;9830;41.876;23.474;2022-10-19T09:44:25;25.50;28.70
19389;DHT22;9830;41.876;23.474;2022-10-19T09:47:35;26.20;27.10
19389;DHT22;9830;41.876;23.474;2022-10-19T09:50:13;26.30;26.70
19389;DHT22;9830;41.876;23.474;2022-10-19T09:52:41;26.90;26.60
19389;DHT22;9830;41.876;23.474;2022-10-19T09:57:43;26.50;25.80
19389;DHT22;9830;41.876;23.474;2022-10-19T10:00:23;26.70;26.10
19389;DHT22;9830;41.876;23.474;2022-10-19T10:02:53;27.00;26.40
19389;DHT22;9830;41.876;23.474;2022-10-19T10:05:32;27.50;25.40
19389;DHT22;9830;41.876;23.474;2022-10-19T10:07:58;27.60;24.90
19389;DHT22;9830;41.876;23.474;2022-10-19T10:10:30;27.20;23.80
19389;DHT22;9830;41.876;23.474;2022-10-19T10:13:01;27.50;23.40
19389;DHT22;9830;41.876;23.474;2022-10-19T10:15:34;27.30;25.30
19389;DHT22;9830;41.876;23.474;2022-10-19T10:18:02;27.20;23.90
19389;DHT22;9830;41.876;23.474;2022-10-19T10:20:29;27.10;23.70
19389;DHT22;9830;41.876;23.474;2022-10-19T10:22:58;27.10;21.90
19389;DHT22;9830;41.876;23.474;2022-10-19T10:25:30;27.10;22.30
19389;DHT22;9830;41.876;23.474;2022-10-19T10:30:24;27.10;22.30
19389;DHT22;9830;41.876;23.474;2022-10-19T10:32:52;26.70;23.40
19389;DHT22;9830;41.876;23.474;2022-10-19T10:35:23;27.00;22.30
19389;DHT22;9830;41.876;23.474;2022-10-19T10:37:50;26.50;22.10
19389;DHT22;9830;41.876;23.474;2022-10-19T10:42:48;26.20;25.60
19389;DHT22;9830;41.876;23.474;2022-10-19T10:47:42;24.20;28.40
19389;DHT22;9830;41.876;23.474;2022-10-19T10:50:20;23.60;29.20
19389;DHT22;9830;41.876;23.474;2022-10-19T10:53:00;23.00;30.20
19389;DHT22;9830;41.876;23.474;2022-10-19T10:55:28;22.60;31.20
19389;DHT22;9830;41.876;23.474;2022-10-19T11:01:05;22.10;31.00
19389;DHT22;9830;41.876;23.474;2022-10-19T11:03:32;22.00;31.70
19389;DHT22;9830;41.876;23.474;2022-10-19T11:06:00;22.00;31.70
19389;DHT22;9830;41.876;23.474;2022-10-19T11:08:43;22.10;32.10
19389;DHT22;9830;41.876;23.474;2022-10-19T11:11:18;22.10;30.20
19389;DHT22;9830;41.876;23.474;2022-10-19T11:13:51;22.00;29.90
19389;DHT22;9830;41.876;23.474;2022-10-19T11:16:23;22.00;30.50
19389;DHT22;9830;41.876;23.474;2022-10-19T11:18:54;21.90;29.80
19389;DHT22;9830;41.876;23.474;2022-10-19T11:21:36;21.80;30.50
19389;DHT22;9830;41.876;23.474;2022-10-19T11:26:49;21.80;30.20
19389;DHT22;9830;41.876;23.474;2022-10-19T11:31:53;21.60;30.90
19389;DHT22;9830;41.876;23.474;2022-10-19T11:40:20;21.40;30.70
19389;DHT22;9830;41.876;23.474;2022-10-19T11:56:55;20.90;32.30
19389;DHT22;9830;41.876;23.474;2022-10-19T12:04:56;20.90;33.60
19389;DHT22;9830;41.876;23.474;2022-10-19T12:13:13;20.80;32.80
19389;DHT22;9830;41.876;23.474;2022-10-19T12:15:49;20.80;31.30
19389;DHT22;9830;41.876;23.474;2022-10-19T12:21:57;20.60;32.90
19389;DHT22;9830;41.876;23.474;2022-10-19T12:23:57;20.60;32.10
19389;DHT22;9830;41.876;23.474;2022-10-19T12:26:24;20.60;32.30
19389;DHT22;9830;41.876;23.474;2022-10-19T12:29:01;20.80;33.50
19389;DHT22;9830;41.876;23.474;2022-10-19T12:31:28;20.80;33.70
19389;DHT22;9830;41.876;23.474;2022-10-19T12:44:32;20.70;35.20
19389;DHT22;9830;41.876;23.474;2022-10-19T12:47:09;20.40;36.10
19389;DHT22;9830;41.876;23.474;2022-10-19T12:49:52;20.30;37.00
19389;DHT22;9830;41.876;23.474;2022-10-19T12:52:44;20.20;36.90
19389;DHT22;9830;41.876;23.474;2022-10-19T12:55:32;20.20;36.90
19389;DHT22;9830;41.876;23.474;2022-10-19T12:58:16;20.20;37.50
19389;DHT22;9830;41.876;23.474;2022-10-19T13:00:58;20.10;37.50
19389;DHT22;9830;41.876;23.474;2022-10-19T13:03:29;20.00;37.70
19389;DHT22;9830;41.876;23.474;2022-10-19T13:09:01;19.90;38.70
19389;DHT22;9830;41.876;23.474;2022-10-19T13:11:27;20.00;38.00
19389;DHT22;9830;41.876;23.474;2022-10-19T13:19:17;19.80;38.30
19389;DHT22;9830;41.876;23.474;2022-10-19T13:32:40;19.70;39.60
19389;DHT22;9830;41.876;23.474;2022-10-19T13:35:30;19.60;39.50
19389;DHT22;9830;41.876;23.474;2022-10-19T13:43:20;19.60;39.40
19389;DHT22;9830;41.876;23.474;2022-10-19T13:48:29;19.20;40.20
19389;DHT22;9830;41.876;23.474;2022-10-19T13:51:08;19.10;40.20
19389;DHT22;9830;41.876;23.474;2022-10-19T13:53:47;19.00;40.30
19389;DHT22;9830;41.876;23.474;2022-10-19T13:59:28;18.80;40.90
19389;DHT22;9830;41.876;23.474;2022-10-19T14:04:57;18.80;41.00
19389;DHT22;9830;41.876;23.474;2022-10-19T14:07:34;18.60;41.00
19389;DHT22;9830;41.876;23.474;2022-10-19T14:10:06;18.60;40.80
19389;DHT22;9830;41.876;23.474;2022-10-19T14:12:41;18.50;40.60
19389;DHT22;9830;41.876;23.474;2022-10-19T14:15:25;18.40;41.20
19389;DHT22;9830;41.876;23.474;2022-10-19T14:17:55;18.30;41.10
19389;DHT22;9830;41.876;23.474;2022-10-19T14:22:47;18.20;41.40
19389;DHT22;9830;41.876;23.474;2022-10-19T14:25:17;18.10;41.40
19389;DHT22;9830;41.876;23.474;2022-10-19T14:27:45;18.00;41.70
19389;DHT22;9830;41.876;23.474;2022-10-19T14:32:45;17.80;42.20
19389;DHT22;9830;41.876;23.474;2022-10-19T14:35:22;17.80;41.90
19389;DHT22;9830;41.876;23.474;2022-10-19T14:37:49;17.70;42.00
19389;DHT22;9830;41.876;23.474;2022-10-19T14:42:47;17.50;42.20
19389;DHT22;9830;41.876;23.474;2022-10-19T14:45:19;17.40;42.00
19389;DHT22;9830;41.876;23.474;2022-10-19T14:47:52;17.30;42.40
19389;DHT22;9830;41.876;23.474;2022-10-19T14:50:20;17.20;42.00
19389;DHT22;9830;41.876;23.474;2022-10-19T14:52:49;17.10;42.70
19389;DHT22;9830;41.876;23.474;2022-10-19T14:55:17;17.10;43.00
19389;DHT22;9830;41.876;23.474;2022-10-19T14:57:46;16.90;43.00
19389;DHT22;9830;41.876;23.474;2022-10-19T15:00:17;16.70;43.00
19389;DHT22;9830;41.876;23.474;2022-10-19T15:03:05;16.50;43.60
19389;DHT22;9830;41.876;23.474;2022-10-19T15:05:35;16.40;43.80
19389;DHT22;9830;41.876;23.474;2022-10-19T15:08:10;16.30;44.00
19389;DHT22;9830;41.876;23.474;2022-10-19T15:10:45;16.20;44.00
19389;DHT22;9830;41.876;23.474;2022-10-19T15:13:31;16.10;44.00
19389;DHT22;9830;41.876;23.474;2022-10-19T15:15:58;16.00;44.10
19389;DHT22;9830;41.876;23.474;2022-10-19T15:18:25;15.90;44.20
19389;DHT22;9830;41.876;23.474;2022-10-19T15:21:11;15.90;44.00
19389;DHT22;9830;41.876;23.474;2022-10-19T15:23:46;15.70;44.10
19389;DHT22;9830;41.876;23.474;2022-10-19T15:28:43;15.50;44.20
19389;DHT22;9830;41.876;23.474;2022-10-19T15:33:44;15.40;44.20
19389;DHT22;9830;41.876;23.474;2022-10-19T15:36:11;15.40;43.80
19389;DHT22;9830;41.876;23.474;2022-10-19T15:39:04;15.40;43.60
19389;DHT22;9830;41.876;23.474;2022-10-19T15:41:37;15.40;43.00
19389;DHT22;9830;41.876;23.474;2022-10-19T15:44:05;15.30;44.10
19389;DHT22;9830;41.876;23.474;2022-10-19T15:52:23;14.90;44.00
19389;DHT22;9830;41.876;23.474;2022-10-19T15:54:50;14.80;44.00
19389;DHT22;9830;41.876;23.474;2022-10-19T15:57:36;14.90;44.10
19389;DHT22;9830;41.876;23.474;2022-10-19T16:00:14;14.90;43.90
19389;DHT22;9830;41.876;23.474;2022-10-19T16:02:40;14.70;44.90
19389;DHT22;9830;41.876;23.474;2022-10-19T16:05:06;14.50;46.50
19389;DHT22;9830;41.876;23.474;2022-10-19T16:07:34;14.20;47.80
19389;DHT22;9830;41.876;23.474;2022-10-19T16:10:01;13.90;49.20
19389;DHT22;9830;41.876;23.474;2022-10-19T16:12:26;13.70;50.00
19389;DHT22;9830;41.876;23.474;2022-10-19T16:14:53;13.50;50.70
19389;DHT22;9830;41.876;23.474;2022-10-19T16:17:19;13.20;52.30
19389;DHT22;9830;41.876;23.474;2022-10-19T16:19:46;12.80;55.30
19389;DHT22;9830;41.876;23.474;2022-10-19T16:22:12;12.50;56.60
19389;DHT22;9830;41.876;23.474;2022-10-19T16:24:38;12.30;58.20
19389;DHT22;9830;41.876;23.474;2022-10-19T16:27:05;12.10;59.20
19389;DHT22;9830;41.876;23.474;2022-10-19T16:29:31;11.90;61.40
19389;DHT22;9830;41.876;23.474;2022-10-19T16:31:57;11.70;64.90
19389;DHT22;9830;41.876;23.474;2022-10-19T16:34:23;11.50;65.00
19389;DHT22;9830;41.876;23.474;2022-10-19T16:36:48;11.40;66.30
19389;DHT22;9830;41.876;23.474;2022-10-19T16:39:14;11.30;62.50
19389;DHT22;9830;41.876;23.474;2022-10-19T16:41:40;11.20;62.90
19389;DHT22;9830;41.876;23.474;2022-10-19T16:44:05;11.00;66.00
19389;DHT22;9830;41.876;23.474;2022-10-19T16:46:31;10.90;67.20
19389;DHT22;9830;41.876;23.474;2022-10-19T16:48:57;10.70;68.00
19389;DHT22;9830;41.876;23.474;2022-10-19T16:51:40;10.50;68.40
19389;DHT22;9830;41.876;23.474;2022-10-19T16:54:09;10.40;69.00
19389;DHT22;9830;41.876;23.474;2022-10-19T16:56:35;10.30;69.50
19389;DHT22;9830;41.876;23.474;2022-10-19T16:59:03;10.10;70.20
19389;DHT22;9830;41.876;23.474;2022-10-19T17:01:31;10.00;70.70
19389;DHT22;9830;41.876;23.474;2022-10-19T17:03:57;10.00;70.50
19389;DHT22;9830;41.876;23.474;2022-10-19T17:06:24;9.90;71.70
19389;DHT22;9830;41.876;23.474;2022-10-19T17:08:51;9.80;71.50
19389;DHT22;9830;41.876;23.474;2022-10-19T17:11:20;9.70;72.70
19389;DHT22;9830;41.876;23.474;2022-10-19T17:13:47;9.60;75.00
19389;DHT22;9830;41.876;23.474;2022-10-19T17:16:14;9.50;75.10
19389;DHT22;9830;41.876;23.474;2022-10-19T17:18:40;9.40;76.10
19389;DHT22;9830;41.876;23.474;2022-10-19T17:21:12;9.40;77.20
19389;DHT22;9830;41.876;23.474;2022-10-19T17:23:39;9.20;80.30
19389;DHT22;9830;41.876;23.474;2022-10-19T17:26:06;9.20;80.60
19389;DHT22;9830;41.876;23.474;2022-10-19T17:28:32;9.10;81.90
19389;DHT22;9830;41.876;23.474;2022-10-19T17:31:03;9.00;82.60
19389;DHT22;9830;41.876;23.474;2022-10-19T17:33:29;8.90;83.30
19389;DHT22;9830;41.876;23.474;2022-10-19T17:35:55;8.90;83.60
19389;DHT22;9830;41.876;23.474;2022-10-19T17:38:20;8.90;84.20
19389;DHT22;9830;41.876;23.474;2022-10-19T17:40:46;8.80;86.70
19389;DHT22;9830;41.876;23.474;2022-10-19T17:43:12;8.60;88.30
19389;DHT22;9830;41.876;23.474;2022-10-19T17:45:37;8.50;87.30
19389;DHT22;9830;41.876;23.474;2022-10-19T17:48:03;8.40;87.80
19389;DHT22;9830;41.876;23.474;2022-10-19T17:50:29;8.30;89.90
19389;DHT22;9830;41.876;23.474;2022-10-19T17:52:55;8.20;90.10
19389;DHT22;9830;41.876;23.474;2022-10-19T17:55:22;8.10;90.10
19389;DHT22;9830;41.876;23.474;2022-10-19T17:57:47;8.00;90.00
19389;DHT22;9830;41.876;23.474;2022-10-19T18:00:13;8.00;90.10
19389;DHT22;9830;41.876;23.474;2022-10-19T18:02:39;7.90;89.70
19389;DHT22;9830;41.876;23.474;2022-10-19T18:05:08;7.80;89.50
19389;DHT22;9830;41.876;23.474;2022-10-19T18:07:33;7.80;90.00
19389;DHT22;9830;41.876;23.474;2022-10-19T18:09:59;7.70;89.60
19389;DHT22;9830;41.876;23.474;2022-10-19T18:12:25;7.80;89.00
19389;DHT22;9830;41.876;23.474;2022-10-19T18:14:51;7.80;89.00
19389;DHT22;9830;41.876;23.474;2022-10-19T18:17:16;7.60;91.00
19389;DHT22;9830;41.876;23.474;2022-10-19T18:19:42;7.40;91.80
19389;DHT22;9830;41.876;23.474;2022-10-19T18:22:08;7.20;92.10
19389;DHT22;9830;41.876;23.474;2022-10-19T18:24:33;6.90;93.40
19389;DHT22;9830;41.876;23.474;2022-10-19T18:26:59;6.80;93.70